sensor_id;sensor_type;location;lat;lon;timestamp;P1;durP1;ratioP1;P2;durP2;ratioP2
19339;SDS011;9804;52.350;6.684;2023-04-16T00:01:56;104.75;;;32.85;;
19339;SDS011;9804;52.350;6.684;2023-04-16T00:04:22;94.47;;;31.30;;
19339;SDS011;9804;52.350;6.684;2023-04-16T00:06:47;102.13;;;31.95;;
19339;SDS011;9804;52.350;6.684;2023-04-16T00:09:13;102.75;;;33.17;;
19339;SDS011;9804;52.350;6.684;2023-04-16T00:11:38;98.35;;;33.25;;
19339;SDS011;9804;52.350;6.684;2023-04-16T00:14:04;105.30;;;33.33;;
19339;SDS011;9804;52.350;6.684;2023-04-16T00:16:29;100.53;;;33.22;;
19339;SDS011;9804;52.350;6.684;2023-04-16T00:18:55;95.57;;;33.35;;
19339;SDS011;9804;52.350;6.684;2023-04-16T00:21:20;93.43;;;33.25;;
19339;SDS011;9804;52.350;6.684;2023-04-16T00:23:46;89.43;;;33.22;;
19339;SDS011;9804;52.350;6.684;2023-04-16T00:26:11;101.38;;;33.47;;
19339;SDS011;9804;52.350;6.684;2023-04-16T00:28:37;94.53;;;32.25;;
19339;SDS011;9804;52.350;6.684;2023-04-16T00:31:02;102.20;;;34.58;;
19339;SDS011;9804;52.350;6.684;2023-04-16T00:33:27;99.88;;;34.67;;
19339;SDS011;9804;52.350;6.684;2023-04-16T00:35:54;97.68;;;33.97;;
19339;SDS011;9804;52.350;6.684;2023-04-16T00:38:20;114.70;;;34.63;;
19339;SDS011;9804;52.350;6.684;2023-04-16T00:40:45;96.57;;;32.95;;
19339;SDS011;9804;52.350;6.684;2023-04-16T00:43:11;96.55;;;34.67;;
19339;SDS011;9804;52.350;6.684;2023-04-16T00:45:43;100.82;;;33.88;;
19339;SDS011;9804;52.350;6.684;2023-04-16T00:48:09;94.00;;;35.05;;
19339;SDS011;9804;52.350;6.684;2023-04-16T00:50:34;87.22;;;33.28;;
19339;SDS011;9804;52.350;6.684;2023-04-16T00:53:00;97.45;;;33.92;;
19339;SDS011;9804;52.350;6.684;2023-04-16T00:55:26;88.35;;;33.42;;
19339;SDS011;9804;52.350;6.684;2023-04-16T00:57:53;86.85;;;33.55;;
19339;SDS011;9804;52.350;6.684;2023-04-16T01:00:19;91.90;;;34.47;;
19339;SDS011;9804;52.350;6.684;2023-04-16T01:02:45;76.43;;;33.45;;
19339;SDS011;9804;52.350;6.684;2023-04-16T01:05:10;82.28;;;33.78;;
19339;SDS011;9804;52.350;6.684;2023-04-16T01:07:36;85.97;;;34.05;;
19339;SDS011;9804;52.350;6.684;2023-04-16T01:10:01;78.80;;;34.70;;
19339;SDS011;9804;52.350;6.684;2023-04-16T01:12:27;88.03;;;34.15;;
19339;SDS011;9804;52.350;6.684;2023-04-16T01:14:53;86.32;;;34.97;;
19339;SDS011;9804;52.350;6.684;2023-04-16T01:17:18;89.30;;;34.60;;
19339;SDS011;9804;52.350;6.684;2023-04-16T01:19:43;88.55;;;35.53;;
19339;SDS011;9804;52.350;6.684;2023-04-16T01:22:09;86.63;;;34.90;;
19339;SDS011;9804;52.350;6.684;2023-04-16T01:24:34;87.57;;;35.95;;
19339;SDS011;9804;52.350;6.684;2023-04-16T01:27:00;84.63;;;36.65;;
19339;SDS011;9804;52.350;6.684;2023-04-16T01:29:25;88.05;;;37.13;;
19339;SDS011;9804;52.350;6.684;2023-04-16T01:31:51;86.57;;;35.38;;
19339;SDS011;9804;52.350;6.684;2023-04-16T01:34:16;92.18;;;35.88;;
19339;SDS011;9804;52.350;6.684;2023-04-16T01:36:42;90.65;;;36.60;;
19339;SDS011;9804;52.350;6.684;2023-04-16T01:39:07;82.93;;;34.72;;
19339;SDS011;9804;52.350;6.684;2023-04-16T01:41:35;87.20;;;35.60;;
19339;SDS011;9804;52.350;6.684;2023-04-16T01:44:01;88.05;;;35.00;;
19339;SDS011;9804;52.350;6.684;2023-04-16T01:46:26;94.43;;;37.58;;
19339;SDS011;9804;52.350;6.684;2023-04-16T01:48:53;84.20;;;37.28;;
19339;SDS011;9804;52.350;6.684;2023-04-16T01:51:19;83.03;;;36.03;;
19339;SDS011;9804;52.350;6.684;2023-04-16T01:53:45;95.63;;;37.65;;
19339;SDS011;9804;52.350;6.684;2023-04-16T01:56:10;87.60;;;36.22;;
19339;SDS011;9804;52.350;6.684;2023-04-16T01:58:36;92.07;;;36.03;;
19339;SDS011;9804;52.350;6.684;2023-04-16T02:01:01;86.30;;;36.33;;
19339;SDS011;9804;52.350;6.684;2023-04-16T02:03:27;95.60;;;38.25;;
19339;SDS011;9804;52.350;6.684;2023-04-16T02:05:53;83.70;;;35.70;;
19339;SDS011;9804;52.350;6.684;2023-04-16T02:08:18;91.80;;;37.33;;
19339;SDS011;9804;52.350;6.684;2023-04-16T02:10:45;96.00;;;35.95;;
19339;SDS011;9804;52.350;6.684;2023-04-16T02:13:11;84.80;;;34.95;;
19339;SDS011;9804;52.350;6.684;2023-04-16T02:15:37;96.57;;;35.88;;
19339;SDS011;9804;52.350;6.684;2023-04-16T02:18:02;83.18;;;34.70;;
19339;SDS011;9804;52.350;6.684;2023-04-16T02:20:28;85.85;;;35.25;;
19339;SDS011;9804;52.350;6.684;2023-04-16T02:22:53;87.38;;;34.67;;
19339;SDS011;9804;52.350;6.684;2023-04-16T02:25:18;81.90;;;34.28;;
19339;SDS011;9804;52.350;6.684;2023-04-16T02:27:44;79.82;;;34.92;;
19339;SDS011;9804;52.350;6.684;2023-04-16T02:30:09;74.13;;;33.53;;
19339;SDS011;9804;52.350;6.684;2023-04-16T02:32:35;81.07;;;34.00;;
19339;SDS011;9804;52.350;6.684;2023-04-16T02:35:00;76.80;;;33.38;;
19339;SDS011;9804;52.350;6.684;2023-04-16T02:37:27;78.93;;;33.40;;
19339;SDS011;9804;52.350;6.684;2023-04-16T02:39:53;75.32;;;34.22;;
19339;SDS011;9804;52.350;6.684;2023-04-16T02:42:18;76.97;;;34.25;;
19339;SDS011;9804;52.350;6.684;2023-04-16T02:44:44;77.75;;;34.28;;
19339;SDS011;9804;52.350;6.684;2023-04-16T02:47:09;77.80;;;34.33;;
19339;SDS011;9804;52.350;6.684;2023-04-16T02:49:35;80.05;;;36.03;;
19339;SDS011;9804;52.350;6.684;2023-04-16T02:52:00;75.60;;;35.53;;
19339;SDS011;9804;52.350;6.684;2023-04-16T02:54:26;77.22;;;35.38;;
19339;SDS011;9804;52.350;6.684;2023-04-16T02:56:51;86.25;;;36.65;;
19339;SDS011;9804;52.350;6.684;2023-04-16T02:59:16;78.93;;;35.60;;
19339;SDS011;9804;52.350;6.684;2023-04-16T03:01:42;77.93;;;35.55;;
19339;SDS011;9804;52.350;6.684;2023-04-16T03:04:07;78.07;;;36.15;;
19339;SDS011;9804;52.350;6.684;2023-04-16T03:06:33;72.55;;;35.97;;
19339;SDS011;9804;52.350;6.684;2023-04-16T03:08:58;82.53;;;38.10;;
19339;SDS011;9804;52.350;6.684;2023-04-16T03:11:23;73.60;;;35.88;;
19339;SDS011;9804;52.350;6.684;2023-04-16T03:13:49;76.90;;;37.00;;
19339;SDS011;9804;52.350;6.684;2023-04-16T03:16:14;69.13;;;34.28;;
19339;SDS011;9804;52.350;6.684;2023-04-16T03:18:40;72.38;;;36.35;;
19339;SDS011;9804;52.350;6.684;2023-04-16T03:21:05;76.15;;;36.17;;
19339;SDS011;9804;52.350;6.684;2023-04-16T03:23:31;80.53;;;36.33;;
19339;SDS011;9804;52.350;6.684;2023-04-16T03:25:56;75.25;;;37.88;;
19339;SDS011;9804;52.350;6.684;2023-04-16T03:28:21;74.07;;;34.67;;
19339;SDS011;9804;52.350;6.684;2023-04-16T03:30:50;71.97;;;35.47;;
19339;SDS011;9804;52.350;6.684;2023-04-16T03:33:17;74.45;;;37.17;;
19339;SDS011;9804;52.350;6.684;2023-04-16T03:35:43;67.82;;;34.47;;
19339;SDS011;9804;52.350;6.684;2023-04-16T03:38:08;72.20;;;36.47;;
19339;SDS011;9804;52.350;6.684;2023-04-16T03:40:33;73.22;;;36.15;;
19339;SDS011;9804;52.350;6.684;2023-04-16T03:42:59;71.82;;;34.92;;
19339;SDS011;9804;52.350;6.684;2023-04-16T03:45:24;74.05;;;35.20;;
19339;SDS011;9804;52.350;6.684;2023-04-16T03:47:50;81.68;;;37.47;;
19339;SDS011;9804;52.350;6.684;2023-04-16T03:50:19;65.78;;;35.38;;
19339;SDS011;9804;52.350;6.684;2023-04-16T03:52:45;68.85;;;34.97;;
19339;SDS011;9804;52.350;6.684;2023-04-16T03:55:11;73.80;;;36.40;;
19339;SDS011;9804;52.350;6.684;2023-04-16T03:57:37;74.45;;;35.72;;
19339;SDS011;9804;52.350;6.684;2023-04-16T04:00:02;78.07;;;34.63;;
19339;SDS011;9804;52.350;6.684;2023-04-16T04:02:28;77.63;;;36.72;;
19339;SDS011;9804;52.350;6.684;2023-04-16T04:04:53;78.32;;;36.63;;
19339;SDS011;9804;52.350;6.684;2023-04-16T04:07:19;74.47;;;36.33;;
19339;SDS011;9804;52.350;6.684;2023-04-16T04:09:44;76.55;;;34.58;;
19339;SDS011;9804;52.350;6.684;2023-04-16T04:12:09;71.18;;;34.83;;
19339;SDS011;9804;52.350;6.684;2023-04-16T04:14:35;70.93;;;35.67;;
19339;SDS011;9804;52.350;6.684;2023-04-16T04:17:07;68.30;;;34.08;;
19339;SDS011;9804;52.350;6.684;2023-04-16T04:19:32;79.05;;;36.88;;
19339;SDS011;9804;52.350;6.684;2023-04-16T04:21:58;76.38;;;34.80;;
19339;SDS011;9804;52.350;6.684;2023-04-16T04:24:24;78.60;;;36.78;;
19339;SDS011;9804;52.350;6.684;2023-04-16T04:26:50;66.32;;;35.00;;
19339;SDS011;9804;52.350;6.684;2023-04-16T04:29:15;67.65;;;35.08;;
19339;SDS011;9804;52.350;6.684;2023-04-16T04:31:41;73.97;;;36.05;;
19339;SDS011;9804;52.350;6.684;2023-04-16T04:34:06;74.82;;;36.28;;
19339;SDS011;9804;52.350;6.684;2023-04-16T04:36:31;75.55;;;37.95;;
19339;SDS011;9804;52.350;6.684;2023-04-16T04:38:57;81.55;;;37.25;;
19339;SDS011;9804;52.350;6.684;2023-04-16T04:41:23;75.22;;;37.38;;
19339;SDS011;9804;52.350;6.684;2023-04-16T04:43:48;72.03;;;36.70;;
19339;SDS011;9804;52.350;6.684;2023-04-16T04:46:13;80.57;;;37.40;;
19339;SDS011;9804;52.350;6.684;2023-04-16T04:48:39;76.45;;;36.88;;
19339;SDS011;9804;52.350;6.684;2023-04-16T04:51:04;88.47;;;39.22;;
19339;SDS011;9804;52.350;6.684;2023-04-16T04:53:30;77.97;;;36.03;;
19339;SDS011;9804;52.350;6.684;2023-04-16T04:55:55;77.60;;;36.45;;
19339;SDS011;9804;52.350;6.684;2023-04-16T04:58:20;76.93;;;37.22;;
19339;SDS011;9804;52.350;6.684;2023-04-16T05:00:46;79.97;;;36.97;;
19339;SDS011;9804;52.350;6.684;2023-04-16T05:03:11;82.60;;;36.22;;
19339;SDS011;9804;52.350;6.684;2023-04-16T05:05:38;83.05;;;36.95;;
19339;SDS011;9804;52.350;6.684;2023-04-16T05:08:04;84.85;;;36.67;;
19339;SDS011;9804;52.350;6.684;2023-04-16T05:10:30;80.05;;;36.40;;
19339;SDS011;9804;52.350;6.684;2023-04-16T05:12:55;81.18;;;37.50;;
19339;SDS011;9804;52.350;6.684;2023-04-16T05:15:21;80.35;;;36.03;;
19339;SDS011;9804;52.350;6.684;2023-04-16T05:17:46;82.85;;;38.15;;
19339;SDS011;9804;52.350;6.684;2023-04-16T05:20:11;85.80;;;36.53;;
19339;SDS011;9804;52.350;6.684;2023-04-16T05:22:37;83.65;;;37.15;;
19339;SDS011;9804;52.350;6.684;2023-04-16T05:25:02;75.93;;;34.22;;
19339;SDS011;9804;52.350;6.684;2023-04-16T05:27:28;81.20;;;36.25;;
19339;SDS011;9804;52.350;6.684;2023-04-16T05:29:53;78.90;;;35.78;;
19339;SDS011;9804;52.350;6.684;2023-04-16T05:32:18;76.32;;;34.78;;
19339;SDS011;9804;52.350;6.684;2023-04-16T05:34:44;75.45;;;35.20;;
19339;SDS011;9804;52.350;6.684;2023-04-16T05:37:09;73.32;;;34.67;;
19339;SDS011;9804;52.350;6.684;2023-04-16T05:39:35;70.38;;;35.40;;
19339;SDS011;9804;52.350;6.684;2023-04-16T05:42:00;75.60;;;35.53;;
19339;SDS011;9804;52.350;6.684;2023-04-16T05:44:25;74.70;;;35.65;;
19339;SDS011;9804;52.350;6.684;2023-04-16T05:46:51;73.25;;;36.45;;
19339;SDS011;9804;52.350;6.684;2023-04-16T05:49:16;73.75;;;36.63;;
19339;SDS011;9804;52.350;6.684;2023-04-16T05:51:43;75.38;;;35.10;;
19339;SDS011;9804;52.350;6.684;2023-04-16T05:54:08;74.75;;;36.60;;
19339;SDS011;9804;52.350;6.684;2023-04-16T05:56:33;73.22;;;34.53;;
19339;SDS011;9804;52.350;6.684;2023-04-16T05:58:59;67.20;;;34.42;;
19339;SDS011;9804;52.350;6.684;2023-04-16T06:01:24;63.92;;;32.88;;
19339;SDS011;9804;52.350;6.684;2023-04-16T06:03:50;64.28;;;32.70;;
19339;SDS011;9804;52.350;6.684;2023-04-16T06:06:15;62.55;;;33.55;;
19339;SDS011;9804;52.350;6.684;2023-04-16T06:08:40;58.45;;;32.17;;
19339;SDS011;9804;52.350;6.684;2023-04-16T06:11:06;56.97;;;30.52;;
19339;SDS011;9804;52.350;6.684;2023-04-16T06:13:31;54.92;;;30.85;;
19339;SDS011;9804;52.350;6.684;2023-04-16T06:15:56;56.45;;;30.73;;
19339;SDS011;9804;52.350;6.684;2023-04-16T06:18:22;54.03;;;31.45;;
19339;SDS011;9804;52.350;6.684;2023-04-16T06:20:47;51.92;;;30.58;;
19339;SDS011;9804;52.350;6.684;2023-04-16T06:23:13;50.45;;;29.67;;
19339;SDS011;9804;52.350;6.684;2023-04-16T06:25:38;48.20;;;29.08;;
19339;SDS011;9804;52.350;6.684;2023-04-16T06:28:03;50.65;;;30.23;;
19339;SDS011;9804;52.350;6.684;2023-04-16T06:30:29;50.30;;;30.40;;
19339;SDS011;9804;52.350;6.684;2023-04-16T06:32:54;52.28;;;29.27;;
19339;SDS011;9804;52.350;6.684;2023-04-16T06:35:20;49.15;;;28.75;;
19339;SDS011;9804;52.350;6.684;2023-04-16T06:37:45;50.20;;;29.40;;
19339;SDS011;9804;52.350;6.684;2023-04-16T06:40:11;50.30;;;29.33;;
19339;SDS011;9804;52.350;6.684;2023-04-16T06:42:36;49.85;;;29.40;;
19339;SDS011;9804;52.350;6.684;2023-04-16T06:45:02;52.17;;;30.35;;
19339;SDS011;9804;52.350;6.684;2023-04-16T06:47:28;48.63;;;29.13;;
19339;SDS011;9804;52.350;6.684;2023-04-16T06:49:53;49.35;;;29.10;;
19339;SDS011;9804;52.350;6.684;2023-04-16T06:52:19;47.35;;;28.25;;
19339;SDS011;9804;52.350;6.684;2023-04-16T06:54:44;52.97;;;29.67;;
19339;SDS011;9804;52.350;6.684;2023-04-16T06:57:09;48.67;;;28.50;;
19339;SDS011;9804;52.350;6.684;2023-04-16T06:59:35;50.45;;;28.80;;
19339;SDS011;9804;52.350;6.684;2023-04-16T07:02:00;44.63;;;26.95;;
19339;SDS011;9804;52.350;6.684;2023-04-16T07:04:26;49.53;;;29.05;;
19339;SDS011;9804;52.350;6.684;2023-04-16T07:06:51;46.22;;;28.30;;
19339;SDS011;9804;52.350;6.684;2023-04-16T07:09:16;43.15;;;27.50;;
19339;SDS011;9804;52.350;6.684;2023-04-16T07:11:42;48.47;;;28.17;;
19339;SDS011;9804;52.350;6.684;2023-04-16T07:14:08;48.97;;;28.90;;
19339;SDS011;9804;52.350;6.684;2023-04-16T07:16:33;48.60;;;28.20;;
19339;SDS011;9804;52.350;6.684;2023-04-16T07:18:59;48.13;;;28.65;;
19339;SDS011;9804;52.350;6.684;2023-04-16T07:21:24;49.30;;;28.13;;
19339;SDS011;9804;52.350;6.684;2023-04-16T07:23:50;48.70;;;27.30;;
19339;SDS011;9804;52.350;6.684;2023-04-16T07:26:15;46.63;;;27.80;;
19339;SDS011;9804;52.350;6.684;2023-04-16T07:28:41;46.92;;;28.70;;
19339;SDS011;9804;52.350;6.684;2023-04-16T07:31:06;48.58;;;28.45;;
19339;SDS011;9804;52.350;6.684;2023-04-16T07:33:32;47.67;;;28.27;;
19339;SDS011;9804;52.350;6.684;2023-04-16T07:35:57;45.22;;;27.52;;
19339;SDS011;9804;52.350;6.684;2023-04-16T07:38:23;48.25;;;28.00;;
19339;SDS011;9804;52.350;6.684;2023-04-16T07:40:48;44.92;;;27.58;;
19339;SDS011;9804;52.350;6.684;2023-04-16T07:43:13;52.90;;;29.73;;
19339;SDS011;9804;52.350;6.684;2023-04-16T07:45:40;53.03;;;30.75;;
19339;SDS011;9804;52.350;6.684;2023-04-16T07:48:06;47.03;;;28.42;;
19339;SDS011;9804;52.350;6.684;2023-04-16T07:50:31;48.53;;;28.02;;
19339;SDS011;9804;52.350;6.684;2023-04-16T07:52:57;46.25;;;29.23;;
19339;SDS011;9804;52.350;6.684;2023-04-16T07:55:22;47.78;;;28.33;;
19339;SDS011;9804;52.350;6.684;2023-04-16T07:57:47;51.25;;;27.27;;
19339;SDS011;9804;52.350;6.684;2023-04-16T08:00:13;46.83;;;27.33;;
19339;SDS011;9804;52.350;6.684;2023-04-16T08:02:39;46.22;;;27.13;;
19339;SDS011;9804;52.350;6.684;2023-04-16T08:05:05;46.72;;;27.70;;
19339;SDS011;9804;52.350;6.684;2023-04-16T08:07:31;41.78;;;26.17;;
19339;SDS011;9804;52.350;6.684;2023-04-16T08:09:56;43.63;;;25.70;;
19339;SDS011;9804;52.350;6.684;2023-04-16T08:12:22;38.40;;;24.85;;
19339;SDS011;9804;52.350;6.684;2023-04-16T08:14:47;43.47;;;26.10;;
19339;SDS011;9804;52.350;6.684;2023-04-16T08:17:16;41.92;;;26.85;;
19339;SDS011;9804;52.350;6.684;2023-04-16T08:19:42;40.92;;;26.23;;
19339;SDS011;9804;52.350;6.684;2023-04-16T08:22:09;41.88;;;25.23;;
19339;SDS011;9804;52.350;6.684;2023-04-16T08:24:35;36.33;;;23.95;;
19339;SDS011;9804;52.350;6.684;2023-04-16T08:27:01;40.95;;;24.83;;
19339;SDS011;9804;52.350;6.684;2023-04-16T08:29:26;43.85;;;24.60;;
19339;SDS011;9804;52.350;6.684;2023-04-16T08:31:52;38.50;;;24.75;;
19339;SDS011;9804;52.350;6.684;2023-04-16T08:34:18;43.90;;;25.75;;
19339;SDS011;9804;52.350;6.684;2023-04-16T08:36:43;41.80;;;25.15;;
19339;SDS011;9804;52.350;6.684;2023-04-16T08:39:10;43.13;;;25.77;;
19339;SDS011;9804;52.350;6.684;2023-04-16T08:41:35;39.20;;;25.15;;
19339;SDS011;9804;52.350;6.684;2023-04-16T08:44:06;37.88;;;23.70;;
19339;SDS011;9804;52.350;6.684;2023-04-16T08:46:33;38.85;;;24.50;;
19339;SDS011;9804;52.350;6.684;2023-04-16T08:49:01;40.85;;;24.27;;
19339;SDS011;9804;52.350;6.684;2023-04-16T08:51:31;40.38;;;24.48;;
19339;SDS011;9804;52.350;6.684;2023-04-16T08:54:01;39.70;;;24.67;;
19339;SDS011;9804;52.350;6.684;2023-04-16T08:56:28;35.97;;;22.70;;
19339;SDS011;9804;52.350;6.684;2023-04-16T08:58:55;38.75;;;23.55;;
19339;SDS011;9804;52.350;6.684;2023-04-16T09:01:22;39.35;;;24.25;;
19339;SDS011;9804;52.350;6.684;2023-04-16T09:03:50;36.70;;;22.85;;
19339;SDS011;9804;52.350;6.684;2023-04-16T09:06:16;39.35;;;23.73;;
19339;SDS011;9804;52.350;6.684;2023-04-16T09:08:45;36.67;;;23.38;;
19339;SDS011;9804;52.350;6.684;2023-04-16T09:11:12;33.67;;;22.33;;
19339;SDS011;9804;52.350;6.684;2023-04-16T09:13:39;34.63;;;22.02;;
19339;SDS011;9804;52.350;6.684;2023-04-16T09:16:05;36.92;;;23.23;;
19339;SDS011;9804;52.350;6.684;2023-04-16T09:18:31;37.85;;;23.20;;
19339;SDS011;9804;52.350;6.684;2023-04-16T09:20:56;36.53;;;21.63;;
19339;SDS011;9804;52.350;6.684;2023-04-16T09:23:22;32.67;;;21.52;;
19339;SDS011;9804;52.350;6.684;2023-04-16T09:25:48;31.60;;;21.05;;
19339;SDS011;9804;52.350;6.684;2023-04-16T09:31:18;33.60;;;21.33;;
19339;SDS011;9804;52.350;6.684;2023-04-16T09:33:59;32.35;;;21.65;;
19339;SDS011;9804;52.350;6.684;2023-04-16T09:36:26;34.05;;;20.52;;
19339;SDS011;9804;52.350;6.684;2023-04-16T09:38:52;31.33;;;20.15;;
19339;SDS011;9804;52.350;6.684;2023-04-16T09:41:18;33.13;;;20.35;;
19339;SDS011;9804;52.350;6.684;2023-04-16T09:43:48;32.03;;;19.70;;
19339;SDS011;9804;52.350;6.684;2023-04-16T09:46:40;33.17;;;20.17;;
19339;SDS011;9804;52.350;6.684;2023-04-16T09:49:11;33.38;;;19.67;;
19339;SDS011;9804;52.350;6.684;2023-04-16T09:51:41;35.65;;;21.17;;
19339;SDS011;9804;52.350;6.684;2023-04-16T09:54:08;32.30;;;21.58;;
19339;SDS011;9804;52.350;6.684;2023-04-16T09:56:43;32.85;;;21.65;;
19339;SDS011;9804;52.350;6.684;2023-04-16T09:59:16;30.30;;;20.48;;
19339;SDS011;9804;52.350;6.684;2023-04-16T10:01:46;31.60;;;19.88;;
19339;SDS011;9804;52.350;6.684;2023-04-16T10:04:13;34.70;;;20.17;;
19339;SDS011;9804;52.350;6.684;2023-04-16T10:06:39;31.70;;;19.85;;
19339;SDS011;9804;52.350;6.684;2023-04-16T10:09:07;32.00;;;19.55;;
19339;SDS011;9804;52.350;6.684;2023-04-16T10:11:34;31.52;;;19.15;;
19339;SDS011;9804;52.350;6.684;2023-04-16T10:14:00;30.23;;;19.90;;
19339;SDS011;9804;52.350;6.684;2023-04-16T10:16:25;29.02;;;19.65;;
19339;SDS011;9804;52.350;6.684;2023-04-16T10:18:52;35.00;;;19.23;;
19339;SDS011;9804;52.350;6.684;2023-04-16T10:21:18;27.20;;;18.45;;
19339;SDS011;9804;52.350;6.684;2023-04-16T10:23:44;28.92;;;18.88;;
19339;SDS011;9804;52.350;6.684;2023-04-16T10:26:10;27.35;;;19.02;;
19339;SDS011;9804;52.350;6.684;2023-04-16T10:28:36;31.42;;;18.75;;
19339;SDS011;9804;52.350;6.684;2023-04-16T10:31:02;28.98;;;18.90;;
19339;SDS011;9804;52.350;6.684;2023-04-16T10:33:30;29.70;;;19.40;;
19339;SDS011;9804;52.350;6.684;2023-04-16T10:38:45;30.08;;;18.52;;
19339;SDS011;9804;52.350;6.684;2023-04-16T10:41:11;29.85;;;19.17;;
19339;SDS011;9804;52.350;6.684;2023-04-16T10:43:47;27.70;;;19.13;;
19339;SDS011;9804;52.350;6.684;2023-04-16T10:48:47;29.50;;;19.15;;
19339;SDS011;9804;52.350;6.684;2023-04-16T10:51:23;29.60;;;18.85;;
19339;SDS011;9804;52.350;6.684;2023-04-16T10:53:52;34.67;;;19.80;;
19339;SDS011;9804;52.350;6.684;2023-04-16T10:56:21;28.10;;;18.98;;
19339;SDS011;9804;52.350;6.684;2023-04-16T10:58:52;26.45;;;18.92;;
19339;SDS011;9804;52.350;6.684;2023-04-16T11:01:34;31.48;;;19.95;;
19339;SDS011;9804;52.350;6.684;2023-04-16T11:09:42;30.83;;;19.58;;
19339;SDS011;9804;52.350;6.684;2023-04-16T11:12:10;27.98;;;18.42;;
19339;SDS011;9804;52.350;6.684;2023-04-16T11:14:38;27.83;;;18.50;;
19339;SDS011;9804;52.350;6.684;2023-04-16T11:17:07;28.50;;;18.50;;
19339;SDS011;9804;52.350;6.684;2023-04-16T11:19:36;29.13;;;19.38;;
19339;SDS011;9804;52.350;6.684;2023-04-16T11:22:02;30.73;;;18.92;;
19339;SDS011;9804;52.350;6.684;2023-04-16T11:24:29;26.33;;;17.27;;
19339;SDS011;9804;52.350;6.684;2023-04-16T11:26:55;26.27;;;18.58;;
19339;SDS011;9804;52.350;6.684;2023-04-16T11:29:20;27.17;;;17.90;;
19339;SDS011;9804;52.350;6.684;2023-04-16T11:31:52;26.98;;;18.45;;
19339;SDS011;9804;52.350;6.684;2023-04-16T11:34:18;28.23;;;18.17;;
19339;SDS011;9804;52.350;6.684;2023-04-16T11:36:48;27.30;;;17.50;;
19339;SDS011;9804;52.350;6.684;2023-04-16T11:39:16;26.23;;;18.23;;
19339;SDS011;9804;52.350;6.684;2023-04-16T11:41:45;28.00;;;18.17;;
19339;SDS011;9804;52.350;6.684;2023-04-16T11:46:42;26.92;;;18.98;;
19339;SDS011;9804;52.350;6.684;2023-04-16T11:49:07;29.02;;;18.65;;
19339;SDS011;9804;52.350;6.684;2023-04-16T11:51:37;26.83;;;17.58;;
19339;SDS011;9804;52.350;6.684;2023-04-16T11:54:04;28.52;;;18.52;;
19339;SDS011;9804;52.350;6.684;2023-04-16T11:56:31;28.15;;;17.25;;
19339;SDS011;9804;52.350;6.684;2023-04-16T11:59:08;26.77;;;17.92;;
19339;SDS011;9804;52.350;6.684;2023-04-16T12:01:34;24.08;;;16.60;;
19339;SDS011;9804;52.350;6.684;2023-04-16T12:04:01;28.45;;;18.50;;
19339;SDS011;9804;52.350;6.684;2023-04-16T12:06:26;25.50;;;17.38;;
19339;SDS011;9804;52.350;6.684;2023-04-16T12:08:52;21.58;;;16.88;;
19339;SDS011;9804;52.350;6.684;2023-04-16T12:11:17;27.42;;;17.85;;
19339;SDS011;9804;52.350;6.684;2023-04-16T12:14:05;25.85;;;17.63;;
19339;SDS011;9804;52.350;6.684;2023-04-16T12:16:35;26.00;;;16.92;;
19339;SDS011;9804;52.350;6.684;2023-04-16T12:19:01;23.30;;;16.75;;
19339;SDS011;9804;52.350;6.684;2023-04-16T12:21:38;22.25;;;15.15;;
19339;SDS011;9804;52.350;6.684;2023-04-16T12:24:05;25.48;;;16.38;;
19339;SDS011;9804;52.350;6.684;2023-04-16T12:26:36;24.65;;;15.73;;
19339;SDS011;9804;52.350;6.684;2023-04-16T12:31:40;20.00;;;16.20;;
19339;SDS011;9804;52.350;6.684;2023-04-16T12:34:06;25.00;;;16.17;;
19339;SDS011;9804;52.350;6.684;2023-04-16T12:36:31;23.58;;;16.55;;
19339;SDS011;9804;52.350;6.684;2023-04-16T12:38:57;23.73;;;15.30;;
19339;SDS011;9804;52.350;6.684;2023-04-16T12:41:22;21.50;;;14.82;;
19339;SDS011;9804;52.350;6.684;2023-04-16T12:43:47;22.35;;;15.18;;
19339;SDS011;9804;52.350;6.684;2023-04-16T12:46:13;23.88;;;15.60;;
19339;SDS011;9804;52.350;6.684;2023-04-16T12:48:38;23.33;;;16.63;;
19339;SDS011;9804;52.350;6.684;2023-04-16T12:51:03;23.88;;;17.33;;
19339;SDS011;9804;52.350;6.684;2023-04-16T12:53:29;23.73;;;15.45;;
19339;SDS011;9804;52.350;6.684;2023-04-16T12:55:55;28.17;;;15.80;;
19339;SDS011;9804;52.350;6.684;2023-04-16T12:58:20;22.13;;;15.68;;
19339;SDS011;9804;52.350;6.684;2023-04-16T13:00:45;22.17;;;15.55;;
19339;SDS011;9804;52.350;6.684;2023-04-16T13:03:11;27.52;;;16.02;;
19339;SDS011;9804;52.350;6.684;2023-04-16T13:05:36;22.58;;;16.30;;
19339;SDS011;9804;52.350;6.684;2023-04-16T13:08:02;20.38;;;14.68;;
19339;SDS011;9804;52.350;6.684;2023-04-16T13:10:27;21.00;;;14.50;;
19339;SDS011;9804;52.350;6.684;2023-04-16T13:12:52;22.77;;;15.23;;
19339;SDS011;9804;52.350;6.684;2023-04-16T13:15:18;24.15;;;15.55;;
19339;SDS011;9804;52.350;6.684;2023-04-16T13:17:43;22.25;;;15.40;;
19339;SDS011;9804;52.350;6.684;2023-04-16T13:20:09;24.63;;;15.45;;
19339;SDS011;9804;52.350;6.684;2023-04-16T13:22:34;23.27;;;14.75;;
19339;SDS011;9804;52.350;6.684;2023-04-16T13:25:00;21.92;;;14.93;;
19339;SDS011;9804;52.350;6.684;2023-04-16T13:27:25;20.92;;;12.65;;
19339;SDS011;9804;52.350;6.684;2023-04-16T13:29:50;19.63;;;13.30;;
19339;SDS011;9804;52.350;6.684;2023-04-16T13:32:16;21.05;;;14.40;;
19339;SDS011;9804;52.350;6.684;2023-04-16T13:34:42;22.75;;;13.82;;
19339;SDS011;9804;52.350;6.684;2023-04-16T13:37:08;21.30;;;13.70;;
19339;SDS011;9804;52.350;6.684;2023-04-16T13:39:33;23.77;;;13.75;;
19339;SDS011;9804;52.350;6.684;2023-04-16T13:41:59;23.02;;;13.82;;
19339;SDS011;9804;52.350;6.684;2023-04-16T13:44:24;21.13;;;12.85;;
19339;SDS011;9804;52.350;6.684;2023-04-16T13:46:49;20.20;;;13.00;;
19339;SDS011;9804;52.350;6.684;2023-04-16T13:49:15;22.65;;;13.02;;
19339;SDS011;9804;52.350;6.684;2023-04-16T13:51:44;17.30;;;12.85;;
19339;SDS011;9804;52.350;6.684;2023-04-16T13:54:10;30.45;;;15.55;;
19339;SDS011;9804;52.350;6.684;2023-04-16T13:56:35;29.95;;;15.73;;
19339;SDS011;9804;52.350;6.684;2023-04-16T13:59:01;28.00;;;15.23;;
19339;SDS011;9804;52.350;6.684;2023-04-16T14:01:26;36.50;;;16.45;;
19339;SDS011;9804;52.350;6.684;2023-04-16T14:03:52;37.70;;;16.92;;
19339;SDS011;9804;52.350;6.684;2023-04-16T14:06:17;36.33;;;17.27;;
19339;SDS011;9804;52.350;6.684;2023-04-16T14:08:43;33.05;;;15.30;;
19339;SDS011;9804;52.350;6.684;2023-04-16T14:11:09;35.92;;;17.20;;
19339;SDS011;9804;52.350;6.684;2023-04-16T14:13:35;31.45;;;15.65;;
19339;SDS011;9804;52.350;6.684;2023-04-16T14:16:01;29.30;;;16.67;;
19339;SDS011;9804;52.350;6.684;2023-04-16T14:18:26;34.60;;;16.17;;
19339;SDS011;9804;52.350;6.684;2023-04-16T14:20:52;33.92;;;16.48;;
19339;SDS011;9804;52.350;6.684;2023-04-16T14:23:17;36.42;;;17.27;;
19339;SDS011;9804;52.350;6.684;2023-04-16T14:25:42;34.42;;;17.05;;
19339;SDS011;9804;52.350;6.684;2023-04-16T14:28:08;33.83;;;17.52;;
19339;SDS011;9804;52.350;6.684;2023-04-16T14:30:33;36.83;;;18.50;;
19339;SDS011;9804;52.350;6.684;2023-04-16T14:32:59;35.10;;;18.05;;
19339;SDS011;9804;52.350;6.684;2023-04-16T14:35:24;34.95;;;18.50;;
19339;SDS011;9804;52.350;6.684;2023-04-16T14:37:50;33.83;;;19.30;;
19339;SDS011;9804;52.350;6.684;2023-04-16T14:40:16;46.33;;;20.70;;
19339;SDS011;9804;52.350;6.684;2023-04-16T14:42:41;36.05;;;19.48;;
19339;SDS011;9804;52.350;6.684;2023-04-16T14:45:07;34.03;;;20.02;;
19339;SDS011;9804;52.350;6.684;2023-04-16T14:47:33;38.65;;;19.90;;